• Join FlightAware (Why Join?)
  • Login
  • US Flag 
02:04PM EST


 

Airport Tracker/Info


-or-


 

Live Flight TrackerFlight Track Log ✈ AFL150 ✈ 05-May-2014 ✈ UUEE / SVO - MUHA / HAV

Flight Track Log - Related Links

Times and Time Zones

All times are in EDT time to prevent confusion due to time zone crossing. See the AFL150 flight status page for this flight to view local times or setup timezone preferences in your user account.

Time Position Orientation Groundspeed Altitude Reporting Facility
EDT Latitude Longitude Course Direction KTS MPH feet Rate Location/Type
09:28AM 56.2794 36.8983 313° West  Level FlightAware Approximate
09:29AM 56.3623 36.7350 313° West  Level FlightAware Approximate
09:30AM 56.4450 36.5709 312° West  Level FlightAware Approximate
09:31AM 56.5275 36.4061 312° West  Level FlightAware Approximate
09:32AM 56.6098 36.2406 312° West  Level FlightAware Approximate
09:33AM 56.6919 36.0744 312° West  Level FlightAware Approximate
09:34AM 56.7738 35.9075 312° West  Level FlightAware Approximate
09:35AM 56.8554 35.7398 312° West  Level FlightAware Approximate
09:36AM 56.9368 35.5714 312° West  Level FlightAware Approximate
09:37AM 57.0179 35.4023 311° West  Level FlightAware Approximate
09:38AM 57.0989 35.2324 311° West  Level FlightAware Approximate
09:39AM 57.1796 35.0618 311° West  Level FlightAware Approximate
09:40AM 57.2601 34.8904 311° West  Level FlightAware Approximate
09:41AM 57.3403 34.7183 311° West  Level FlightAware Approximate
09:42AM 57.3715 34.6474 309° West  Level FlightAware Approximate
09:43AM 57.4493 34.4710 309° West  Level FlightAware Approximate
09:44AM 57.5269 34.2939 309° West  Level FlightAware Approximate
09:45AM 57.6042 34.1160 309° West  Level FlightAware Approximate
09:46AM 57.6813 33.9374 309° West  Level FlightAware Approximate
09:47AM 57.7582 33.7580 309° West  Level FlightAware Approximate
09:48AM 57.8348 33.5778 309° West  Level FlightAware Approximate
09:49AM 57.9111 33.3969 309° West  Level FlightAware Approximate
09:50AM 57.9871 33.2151 308° West  Level FlightAware Approximate
09:51AM 58.0630 33.0327 308° West  Level FlightAware Approximate
09:52AM 58.1385 32.8494 308° West  Level FlightAware Approximate
09:53AM 58.2138 32.6654 308° West  Level FlightAware Approximate
09:54AM 58.2888 32.4806 308° West  Level FlightAware Approximate
09:55AM 58.3636 32.2950 308° West  Level FlightAware Approximate
09:56AM 58.4380 32.1086 307° West  Level FlightAware Approximate
09:57AM 58.5123 31.9214 307° West  Level FlightAware Approximate
09:58AM 58.5862 31.7335 307° West  Level FlightAware Approximate
09:59AM 58.6599 31.5447 307° West  Level FlightAware Approximate
10:00AM 58.7332 31.3552 307° West  Level FlightAware Approximate
10:01AM 58.8063 31.1648 307° West  Level FlightAware Approximate
10:02AM 58.8792 30.9737 306° West  Level FlightAware Approximate
10:03AM 58.9517 30.7817 306° West  Level FlightAware Approximate
10:04AM 59.0240 30.5889 306° West  Level FlightAware Approximate
10:05AM 59.0959 30.3953 306° West  Level FlightAware Approximate
10:06AM 59.1676 30.2010 306° West  Level FlightAware Approximate
10:07AM 59.2390 30.0058 306° West  Level FlightAware Approximate
10:08AM 59.3101 29.8097 305° West  Level FlightAware Approximate
10:09AM 59.3809 29.6129 305° West  Level FlightAware Approximate
10:10AM 59.4514 29.4152 305° West  Level FlightAware Approximate
10:11AM 59.5216 29.2167 305° West  Level FlightAware Approximate
10:12AM 59.5915 29.0174 305° West  Level FlightAware Approximate
10:13AM 59.6611 28.8173 305° West  Level FlightAware Approximate
10:14AM 59.7304 28.6163 304° West  Level FlightAware Approximate
10:15AM 59.7993 28.4145 304° West  Level FlightAware Approximate
10:16AM 59.8680 28.2119 304° West  Level FlightAware Approximate
10:17AM 59.9364 28.0084 304° West  Level FlightAware Approximate
10:18AM 60.0044 27.8041 304° West  Level FlightAware Approximate
10:19AM 60.0721 27.5989 303° West  Level FlightAware Approximate
10:20AM 60.1395 27.3929 303° West  Level FlightAware Approximate
10:21AM 60.2066 27.1860 303° West  Level FlightAware Approximate
10:22AM 60.2733 26.9783 303° West  Level FlightAware Approximate
10:23AM 60.3398 26.7698 303° West  Level FlightAware Approximate
10:24AM 60.4059 26.5604 303° West  Level FlightAware Approximate
10:25AM 60.4716 26.3501 302° West  Level FlightAware Approximate
10:26AM 60.5371 26.1390 302° West  Level FlightAware Approximate
10:27AM 60.6022 25.9271 302° West  Level FlightAware Approximate
10:28AM 60.6670 25.7143 302° West  Level FlightAware Approximate
10:28AM 59.9983 26.2674 289° West 462 532 34,000  Level FlightAware ADS-B (EFHN)
10:28AM 60.0332 26.1216 302° West 463 533 34,000  Level FlightAware ADS-B (EFHN)
10:29AM 60.0668 26.0109 301° West 463 533 34,000  Level FlightAware ADS-B (EFHN)
10:30AM 60.1460 25.7438 301° West 462 532 34,000  Level FlightAware ADS-B (EFHN)
10:31AM 60.1988 25.5659 301° West 462 532 34,000  Level FlightAware ADS-B (EFHN)
10:31AM 60.2324 25.4520 301° West 462 532 34,000  Level FlightAware ADS-B (EFHN)
10:32AM 60.2657 25.3386 301° West 462 532 34,000  Level FlightAware ADS-B (EFHN)
10:32AM 60.2986 25.2258 301° West 462 532 34,000  Level FlightAware ADS-B (EFHN)
10:33AM 60.3404 25.0824 300° West 460 529 34,000  Level FlightAware ADS-B (EFHN)
10:33AM 60.3679 24.9871 300° West 459 528 34,000  Level FlightAware ADS-B (EFHN)
10:34AM 60.4077 24.8482 300° West 458 527 34,000  Level FlightAware ADS-B (EFHN)
10:35AM 60.4442 24.7206 300° West 456 525 34,000  Level FlightAware ADS-B (EFHN)
10:35AM 60.4750 24.6118 300° West 456 525 34,000  Level FlightAware ADS-B (EFHN)
10:36AM 60.5183 24.4588 300° West 456 525 34,000  Level FlightAware ADS-B (EFHN)
10:36AM 60.5504 24.3449 300° West 457 526 34,000  Level FlightAware ADS-B (EFHN)
10:37AM 60.5814 24.2328 298° West 457 526 34,000  Level FlightAware ADS-B (EFHN)
10:38AM 60.6298 24.0399 297° West 458 527 34,000  Level FlightAware ADS-B (EFHN)
10:38AM 60.6596 23.9207 297° West 457 526 34,000  Level FlightAware ADS-B (EFHN)
10:39AM 60.6884 23.8056 297° West 457 526 34,000  Level FlightAware ADS-B (EFHN)
10:39AM 60.7122 23.7102 297° West 455 524 34,000  Level FlightAware ADS-B (EFHN)
10:40AM 60.7434 23.5847 297° West 455 524 34,000  Level FlightAware ADS-B (EFHN)
10:40AM 60.7793 23.4387 297° West 454 522 34,000  Level FlightAware ADS-B (EFHN)
10:41AM 60.8173 23.2835 297° West 455 524 34,000  Level FlightAware ADS-B (EFHN)
10:41AM 60.8428 23.1785 297° West 455 524 34,000  Level FlightAware ADS-B (EFHN)
10:42AM 60.8878 22.9930 296° West 454 522 34,000  Level FlightAware ADS-B (EFHN)
10:43AM 60.9325 22.8063 296° West 454 522 34,000  Level FlightAware ADS-B (EFHN)
10:44AM 60.9686 22.6547 296° West 454 522 34,000  Level FlightAware ADS-B (EFHN)
10:45AM 61.0627 22.2541 296° West 453 521 34,000  Level FlightAware ADS-B (EFHN)
10:46AM 61.0071 22.4919 296° West 454 522 34,000  Level FlightAware ADS-B (ESKB)
10:47AM 61.1384 21.9266 295° West 450 518 34,000  Level FlightAware ADS-B (ESKB)
10:48AM 61.1998 21.6569 295° West 450 518 34,000  Level FlightAware ADS-B (EFHN)
10:49AM 61.2148 21.5904 295° West 449 517 34,000  Level FlightAware ADS-B (EFHN)
10:50AM 61.3042 21.1907 295° West 447 514 34,000  Level FlightAware ADS-B (ESKB)
10:51AM 61.3428 21.0157 295° West 445 512 34,000  Level FlightAware ADS-B (ESKB)
10:51AM 61.3769 20.8597 294° West 445 512 34,000  Level FlightAware ADS-B (ESKB)
10:52AM 61.4075 20.7187 294° West 446 513 34,000  Level FlightAware ADS-B (ESKB)
10:56AM 61.6173 19.7263 293° West 446 513 34,000  Level FlightAware ADS-B (ESKB)
10:59AM 61.7216 19.1638 292° West  Level Estimated
11:00AM 61.7655 18.9216 291° West  Level Estimated
11:01AM 61.8091 18.6786 291° West  Level Estimated
11:02AM 61.8522 18.4350 291° West  Level Estimated
11:03AM 61.8949 18.1907 290° West  Level Estimated
11:04AM 61.9371 17.9457 290° West  Level Estimated
11:05AM 61.9789 17.7001 290° West  Level Estimated
11:06AM 62.0203 17.4538 290° West  Level Estimated
11:07AM 62.0612 17.2068 290° West  Level Estimated
11:08AM 62.1017 16.9591 289° West  Level Estimated
11:09AM 62.1417 16.7108 289° West  Level Estimated
11:10AM 62.1813 16.4618 289° West  Level Estimated
11:11AM 62.2205 16.2122 289° West  Level Estimated
11:12AM 62.2592 15.9620 288° West  Level Estimated
11:13AM 62.2974 15.7111 288° West  Level Estimated
11:14AM 62.3352 15.4595 288° West  Level Estimated
11:15AM 62.3725 15.2074 288° West  Level Estimated
11:16AM 62.4094 14.9546 288° West  Level Estimated
11:17AM 62.4458 14.7012 287° West  Level Estimated
11:18AM 62.4818 14.4472 287° West  Level Estimated
11:19AM 62.5173 14.1925 287° West  Level Estimated
11:20AM 62.5523 13.9373 287° West  Level Estimated
11:21AM 62.5869 13.6814 286° West  Level Estimated
11:22AM 62.6210 13.4250 286° West  Level Estimated
11:23AM 62.6546 13.1680 286° West  Level Estimated
11:24AM 62.6878 12.9104 286° West  Level Estimated
11:25AM 62.7205 12.6523 286° West  Level Estimated
11:26AM 62.7527 12.3935 285° West  Level Estimated
11:27AM 62.7844 12.1342 285° West  Level Estimated
11:28AM 62.8157 11.8744 285° West  Level Estimated
11:29AM 62.8464 11.6140 285° West  Level Estimated
11:30AM 62.8767 11.3531 284° West  Level Estimated
11:31AM 62.9065 11.0916 284° West  Level Estimated
11:32AM 62.9359 10.8296 284° West  Level Estimated
11:33AM 62.9647 10.5670 284° West  Level Estimated
11:34AM 62.9931 10.3040 283° West  Level Estimated
11:35AM 63.0209 10.0405 283° West  Level Estimated
11:36AM 63.0483 9.7764 283° West  Level Estimated
11:37AM 63.0752 9.5119 283° West  Level Estimated
11:38AM 63.1016 9.2469 283° West  Level Estimated
11:39AM 63.1274 8.9814 282° West  Level Estimated
11:40AM 63.1528 8.7154 282° West  Level Estimated
11:41AM 63.1777 8.4490 282° West  Level Estimated
11:42AM 63.2021 8.1821 282° West  Level Estimated
11:43AM 63.2260 7.9148 281° West  Level Estimated
11:44AM 63.2494 7.6470 281° West  Level Estimated
11:45AM 63.2723 7.3788 281° West  Level Estimated
11:46AM 63.2947 7.1102 281° West  Level Estimated
11:47AM 63.3166 6.8412 280° West  Level Estimated
11:48AM 63.3379 6.5717 280° West  Level Estimated
11:49AM 63.3588 6.3019 280° West  Level Estimated
11:50AM 63.3791 6.0317 280° West  Level Estimated
11:51AM 63.3990 5.7611 279° West  Level Estimated
11:52AM 63.4183 5.4901 279° West  Level Estimated
11:53AM 63.4371 5.2188 279° West  Level Estimated
11:54AM 63.4554 4.9471 279° West  Level Estimated
11:55AM 63.4732 4.6751 278° West  Level Estimated
11:56AM 63.4905 4.4028 278° West  Level Estimated
11:57AM 63.5072 4.1301 278° West  Level Estimated
11:58AM 63.5234 3.8571 278° West  Level Estimated
11:59AM 63.5391 3.5838 277° West  Level Estimated
12:00PM 63.5543 3.3102 277° West  Level Estimated
12:01PM 63.5690 3.0363 277° West  Level Estimated
12:02PM 63.5831 2.7622 277° West  Level Estimated
12:03PM 63.5967 2.4877 276° West  Level Estimated
12:04PM 63.6099 2.2131 276° West  Level Estimated
12:05PM 63.6224 1.9381 276° West  Level Estimated
12:06PM 63.6345 1.6630 276° West  Level Estimated
12:07PM 63.6460 1.3876 276° West  Level Estimated
12:08PM 63.6570 1.1120 275° West  Level Estimated
12:09PM 63.6674 0.8361 275° West  Level Estimated
12:10PM 63.6774 0.5601 275° West  Level Estimated
12:11PM 63.6868 0.2839 275° West  Level Estimated
12:12PM 63.6957 0.0075 274° West  Level Estimated
12:13PM 63.7040 -0.2691 274° West  Level Estimated
12:14PM 63.7118 -0.5458 274° West  Level Estimated
12:15PM 63.7191 -0.8226 274° West  Level Estimated
12:16PM 63.7259 -1.0996 273° West  Level Estimated
12:17PM 63.7321 -1.3768 273° West  Level Estimated
12:18PM 63.7378 -1.6540 273° West  Level Estimated
12:19PM 63.7430 -1.9314 273° West  Level Estimated
12:20PM 63.7476 -2.2088 272° West  Level Estimated
12:21PM 63.7517 -2.4864 272° West  Level Estimated
12:22PM 63.7552 -2.7640 272° West  Level Estimated
12:23PM 63.7583 -3.0416 272° West  Level Estimated
12:24PM 63.7608 -3.3194 271° West  Level Estimated
12:25PM 63.7627 -3.5971 271° West  Level Estimated
12:26PM 63.7641 -3.8749 271° West  Level Estimated
12:27PM 63.7650 -4.1528 271° West  Level Estimated
12:28PM 63.7654 -4.4306 270° West  Level Estimated
12:29PM 63.7652 -4.7084 270° West  Level Estimated
12:30PM 63.7645 -4.9863 270° West  Level Estimated
12:31PM 63.7633 -5.2641 270° West  Level Estimated
12:32PM 63.7615 -5.5419 269° West  Level Estimated
12:33PM 63.7592 -5.8196 269° West  Level Estimated
12:34PM 63.7563 -6.0973 269° West  Level Estimated
12:35PM 63.7529 -6.3749 269° West  Level Estimated
12:36PM 63.7490 -6.6525 268° West  Level Estimated
12:37PM 63.7446 -6.9300 268° West  Level Estimated
12:38PM 63.7396 -7.2074 268° West  Level Estimated
12:39PM 63.7341 -7.4847 268° West  Level Estimated
12:40PM 63.7280 -7.7618 267° West  Level Estimated
12:41PM 63.7215 -8.0389 267° West  Level Estimated
12:42PM 63.7144 -8.3158 267° West  Level Estimated
12:43PM 63.7067 -8.5926 267° West  Level Estimated
12:44PM 63.6985 -8.8692 266° West  Level Estimated
12:45PM 63.6898 -9.1456 266° West  Level Estimated
12:46PM 63.6806 -9.4219 266° West  Level Estimated
12:47PM 63.6708 -9.6980 266° West  Level Estimated
12:48PM 63.6606 -9.9739 265° West  Level Estimated
12:49PM 63.6497 -10.2495 265° West  Level Estimated
12:50PM 63.6384 -10.5250 265° West  Level Estimated
12:51PM 63.6265 -10.8003 265° West  Level Estimated
12:52PM 63.6141 -11.0753 264° West  Level Estimated
12:53PM 63.6012 -11.3500 264° West  Level Estimated
12:54PM 63.5878 -11.6246 264° West  Level Estimated
12:55PM 63.5738 -11.8988 264° West  Level Estimated
12:56PM 63.5593 -12.1728 263° West  Level Estimated
12:57PM 63.5443 -12.4465 263° West  Level Estimated
12:58PM 63.5288 -12.7199 263° West  Level Estimated
12:59PM 63.5127 -12.9930 263° West  Level Estimated
01:00PM 63.4961 -13.2657 262° West  Level Estimated
01:01PM 63.4790 -13.5382 262° West  Level Estimated
01:02PM 63.4614 -13.8103 262° West  Level Estimated
01:03PM 63.4433 -14.0821 262° West  Level Estimated
01:04PM 63.4247 -14.3536 261° West  Level Estimated
01:05PM 63.4055 -14.6247 261° West  Level Estimated
01:06PM 63.3858 -14.8954 261° West  Level Estimated
01:07PM 63.3657 -15.1657 261° West  Level Estimated
01:08PM 63.3450 -15.4357 260° West  Level Estimated
01:09PM 63.3238 -15.7052 260° West  Level Estimated
01:10PM 63.3021 -15.9744 260° West  Level Estimated
01:11PM 63.2799 -16.2432 260° West  Level Estimated
01:12PM 63.2572 -16.5115 259° West  Level Estimated
01:13PM 63.2339 -16.7794 259° West  Level Estimated
01:14PM 63.2102 -17.0469 259° West  Level Estimated
01:15PM 63.1860 -17.3139 259° West  Level Estimated
01:16PM 63.1613 -17.5805 259° West  Level Estimated
01:17PM 63.1360 -17.8466 258° West  Level Estimated
01:18PM 63.1103 -18.1123 258° West  Level Estimated
01:19PM 63.0841 -18.3775 258° West  Level Estimated
01:20PM 63.0574 -18.6422 258° West  Level Estimated
01:21PM 63.0302 -18.9064 257° West  Level Estimated
01:22PM 63.0025 -19.1701 257° West  Level Estimated
01:23PM 62.9743 -19.4333 257° West  Level Estimated
01:24PM 62.9456 -19.6960 257° West  Level Estimated
01:25PM 62.9165 -19.9582 256° West  Level Estimated
01:26PM 62.8868 -20.2198 256° West  Level Estimated
01:27PM 62.8567 -20.4809 256° West  Level Estimated
01:28PM 62.8261 -20.7415 256° West  Level Estimated
01:29PM 62.7950 -21.0016 255° West  Level Estimated
01:30PM 62.7634 -21.2610 255° West  Level Estimated
01:31PM 62.7313 -21.5200 255° West  Level Estimated
01:32PM 62.6988 -21.7783 255° West  Level Estimated
01:33PM 62.6658 -22.0361 255° West  Level Estimated
01:34PM 62.6323 -22.2933 254° West  Level Estimated
01:35PM 62.5984 -22.5499 254° West  Level Estimated
01:36PM 62.5640 -22.8060 254° West  Level Estimated
01:37PM 62.5291 -23.0614 254° West  Level Estimated
01:38PM 62.4938 -23.3162 253° West  Level Estimated
01:39PM 62.4580 -23.5705 253° West  Level Estimated
01:40PM 62.4217 -23.8241 253° West  Level Estimated
01:41PM 62.3850 -24.0771 253° West  Level Estimated
01:42PM 62.3478 -24.3295 252° West  Level Estimated
01:43PM 62.3101 -24.5812 252° West  Level Estimated
01:44PM 62.2720 -24.8323 252° West  Level Estimated
01:45PM 62.2335 -25.0828 252° West  Level Estimated
01:46PM 62.1945 -25.3326 252° West  Level Estimated
01:47PM 62.1551 -25.5818 251° West  Level Estimated
01:48PM 62.1152 -25.8303 251° West  Level Estimated
01:49PM 62.0748 -26.0782 251° West  Level Estimated
01:50PM 62.0341 -26.3254 251° West  Level Estimated
01:51PM 61.9928 -26.5720 250° West  Level Estimated
01:52PM 61.9512 -26.8179 250° West  Level Estimated
01:53PM 61.9091 -27.0631 250° West  Level Estimated
01:54PM 61.8666 -27.3076 250° West  Level Estimated
01:55PM 61.8236 -27.5514 250° West  Level Estimated
01:56PM 61.7802 -27.7946 249° West  Level Estimated
01:57PM 61.7364 -28.0371 249° West  Level Estimated
01:58PM 61.6921 -28.2789 249° West  Level Estimated
01:59PM 61.6475 -28.5199 249° West  Level Estimated
02:00PM 61.6024 -28.7603 249° West  Level Estimated
02:01PM 61.5569 -29.0000 248° West  Level Estimated
02:02PM 61.5109 -29.2390 248° West  Level Estimated
02:03PM 61.4646 -29.4773 248° West  Level Estimated
02:04PM 61.4178 -29.7148 248° West  Level Estimated
02:05PM 61.3706 -29.9517 248° West  Level Estimated
02:06PM 61.3230 -30.1878 247° West  Level Estimated
02:07PM 61.2750 -30.4232 247° West  Level Estimated
02:08PM 61.2266 -30.6579 247° West  Level Estimated
02:09PM 61.1778 -30.8918 247° West  Level Estimated
02:10PM 61.1286 -31.1251 246° West  Level Estimated
02:11PM 61.0790 -31.3576 246° West  Level Estimated
02:12PM 61.0290 -31.5894 246° West  Level Estimated
02:13PM 60.9786 -31.8204 246° West  Level Estimated
02:14PM 60.9278 -32.0507 246° West  Level Estimated
02:15PM 60.8766 -32.2803 245° Southwest  Level Estimated
02:16PM 60.8250 -32.5092 245° Southwest  Level Estimated
02:17PM 60.7730 -32.7373 245° Southwest  Level Estimated
02:18PM 60.7207 -32.9646 245° Southwest  Level Estimated
02:19PM 60.6679 -33.1912 245° Southwest  Level Estimated
02:20PM 60.6148 -33.4171 244° Southwest  Level Estimated
02:21PM 60.5613 -33.6422 244° Southwest  Level Estimated
02:22PM 60.5075 -33.8666 244° Southwest  Level Estimated
02:23PM 60.4532 -34.0902 244° Southwest  Level Estimated
02:24PM 60.3986 -34.3131 244° Southwest  Level Estimated
02:25PM 60.3436 -34.5352 243° Southwest  Level Estimated
02:26PM 60.2882 -34.7566 243° Southwest  Level Estimated
02:27PM 60.2325 -34.9773 243° Southwest  Level Estimated
02:28PM 60.1764 -35.1971 243° Southwest  Level Estimated
02:29PM 60.1199 -35.4163 243° Southwest  Level Estimated
02:30PM 60.0631 -35.6347 243° Southwest  Level Estimated
02:31PM 60.0059 -35.8523 242° Southwest  Level Estimated
02:32PM 59.9484 -36.0691 242° Southwest  Level Estimated
02:33PM 59.8905 -36.2853 242° Southwest  Level Estimated
02:34PM 59.8323 -36.5006 242° Southwest  Level Estimated
02:35PM 59.7737 -36.7152 242° Southwest  Level Estimated
02:36PM 59.7147 -36.9291 241° Southwest  Level Estimated
02:37PM 59.6554 -37.1422 241° Southwest  Level Estimated
02:38PM 59.5958 -37.3545 241° Southwest  Level Estimated
02:39PM 59.5358 -37.5661 241° Southwest  Level Estimated
02:40PM 59.4755 -37.7770 241° Southwest  Level Estimated
02:41PM 59.4149 -37.9870 240° Southwest  Level Estimated
02:42PM 59.3539 -38.1964 240° Southwest  Level Estimated
02:43PM 59.2926 -38.4049 240° Southwest  Level Estimated
02:44PM 59.2309 -38.6128 240° Southwest  Level Estimated
02:45PM 59.1689 -38.8198 240° Southwest  Level Estimated
02:46PM 59.1066 -39.0262 240° Southwest  Level Estimated
02:47PM 59.0440 -39.2317 239° Southwest  Level Estimated
02:48PM 58.9810 -39.4366 239° Southwest  Level Estimated
02:49PM 58.9177 -39.6406 239° Southwest  Level Estimated
02:50PM 58.8541 -39.8439 239° Southwest  Level Estimated
02:51PM 58.7902 -40.0465 239° Southwest  Level Estimated
02:52PM 58.7259 -40.2483 239° Southwest  Level Estimated
02:53PM 58.6614 -40.4494 238° Southwest  Level Estimated
02:54PM 58.5965 -40.6498 238° Southwest  Level Estimated
02:55PM 58.5313 -40.8494 238° Southwest  Level Estimated
02:56PM 58.4659 -41.0482 238° Southwest  Level Estimated
02:57PM 58.4001 -41.2463 238° Southwest  Level Estimated
02:58PM 58.3340 -41.4437 238° Southwest  Level Estimated
02:59PM 58.2676 -41.6403 237° Southwest  Level Estimated
03:00PM 58.2009 -41.8362 237° Southwest  Level Estimated
03:01PM 58.1339 -42.0314 237° Southwest  Level Estimated
03:02PM 58.0666 -42.2258 237° Southwest  Level Estimated
03:03PM 57.9990 -42.4195 237° Southwest  Level Estimated
03:04PM 57.9311 -42.6125 237° Southwest  Level Estimated
03:05PM 57.8629 -42.8047 236° Southwest  Level Estimated
03:06PM 57.7944 -42.9962 236° Southwest  Level Estimated
03:07PM 57.7257 -43.1870 236° Southwest  Level Estimated
03:08PM 57.6567 -43.3770 236° Southwest  Level Estimated
03:09PM 57.5873 -43.5664 236° Southwest  Level Estimated
03:10PM 57.5177 -43.7550 236° Southwest  Level Estimated
03:11PM 57.4478 -43.9429 235° Southwest  Level Estimated
03:12PM 57.3777 -44.1300 235° Southwest  Level Estimated
03:13PM 57.3072 -44.3165 235° Southwest  Level Estimated
03:14PM 57.2365 -44.5022 235° Southwest  Level Estimated
03:15PM 57.1655 -44.6872 235° Southwest  Level Estimated
03:16PM 57.0943 -44.8716 235° Southwest  Level Estimated
03:17PM 57.0227 -45.0552 234° Southwest  Level Estimated
03:18PM 56.9510 -45.2381 234° Southwest  Level Estimated
03:19PM 56.8789 -45.4203 234° Southwest  Level Estimated
03:20PM 56.8066 -45.6018 234° Southwest  Level Estimated
03:21PM 56.7340 -45.7826 234° Southwest  Level Estimated
03:22PM 56.6611 -45.9626 234° Southwest  Level Estimated
03:23PM 56.5880 -46.1420 234° Southwest  Level Estimated
03:24PM 56.5146 -46.3208 233° Southwest  Level Estimated
03:25PM 56.4410 -46.4988 233° Southwest  Level Estimated
03:26PM 56.3672 -46.6761 233° Southwest  Level Estimated
03:27PM 56.2930 -46.8527 233° Southwest  Level Estimated
03:28PM 56.2187 -47.0287 233° Southwest  Level Estimated
03:29PM 56.1440 -47.2039 233° Southwest  Level Estimated
03:30PM 56.0692 -47.3785 233° Southwest  Level Estimated
03:31PM 55.9940 -47.5524 232° Southwest  Level Estimated
03:32PM 55.9187 -47.7257 232° Southwest  Level Estimated
03:33PM 55.8431 -47.8982 232° Southwest  Level Estimated
03:34PM 55.7672 -48.0701 232° Southwest  Level Estimated
03:35PM 55.6911 -48.2413 232° Southwest  Level Estimated
03:36PM 55.6148 -48.4119 232° Southwest  Level Estimated
03:37PM 55.5383 -48.5818 232° Southwest  Level Estimated
03:38PM 55.4615 -48.7510 231° Southwest  Level Estimated
03:39PM 55.3844 -48.9196 231° Southwest  Level Estimated
03:40PM 55.3072 -49.0875 231° Southwest  Level Estimated
03:41PM 55.2297 -49.2548 231° Southwest  Level Estimated
03:42PM 55.1520 -49.4214 231° Southwest  Level Estimated
03:42PM 59.0333 -55.4500 230° Southwest 480 552 34,000  Level Gander Center
03:43PM 55.0718 -49.5920 231° Southwest  Level Estimated
03:43PM 58.9667 -55.6833 241° Southwest 480 552 34,800  Level Gander Center
03:44PM 54.9915 -49.7620 231° Southwest  Level Estimated
03:44PM 58.9333 -55.9167 255° West 470 541 36,000  Level Gander Center
03:45PM 54.9108 -49.9313 230° Southwest  Level Estimated
03:46PM 54.8300 -50.0999 230° Southwest  Level Estimated
03:47PM 54.7489 -50.2679 230° Southwest  Level Estimated
03:47PM 58.7887 -56.1437 219° Southwest  Level Estimated
03:48PM 54.6676 -50.4351 230° Southwest  Level Estimated
03:54PM 58.2570 -56.9571 219° Southwest  Level Estimated
03:55PM 58.1807 -57.0713 218° Southwest  Level Estimated
03:56PM 58.1042 -57.1850 218° Southwest  Level Estimated
03:57PM 58.0276 -57.2982 218° Southwest  Level Estimated
03:58PM 57.9510 -57.4110 218° Southwest  Level Estimated
03:59PM 57.8742 -57.5232 218° Southwest  Level Estimated
04:00PM 57.7973 -57.6350 218° Southwest  Level Estimated
04:01PM 57.6979 -57.7787 218° Southwest  Level Estimated
04:02PM 57.5983 -57.9216 218° Southwest  Level Estimated
04:03PM 57.4986 -58.0637 217° Southwest  Level Estimated
04:04PM 57.3987 -58.2050 217° Southwest  Level Estimated
04:05PM 57.2986 -58.3456 217° Southwest  Level Estimated
04:06PM 57.1984 -58.4854 217° Southwest  Level Estimated
04:07PM 57.0982 -58.6242 217° Southwest  Level Estimated
04:08PM 56.9978 -58.7623 217° Southwest  Level Estimated
04:09PM 56.8972 -58.8997 217° Southwest  Level Estimated
04:10PM 56.7964 -59.0365 217° Southwest  Level Estimated
04:11PM 56.6954 -59.1725 217° Southwest  Level Estimated
04:12PM 56.5943 -59.3079 216° Southwest  Level Estimated
04:13PM 56.4930 -59.4425 216° Southwest  Level Estimated
04:14PM 56.3919 -59.5771 216° Southwest  Level FlightAware Approximate
04:15PM 56.2906 -59.7110 216° Southwest  Level FlightAware Approximate
04:16PM 56.1894 -59.8440 216° Southwest  Level FlightAware Approximate
04:17PM 56.0878 -59.9765 216° Southwest  Level FlightAware Approximate
04:18PM 55.9861 -60.1083 216° Southwest  Level FlightAware Approximate
04:19PM 55.8840 -60.2386 226° Southwest  Level Estimated
04:20PM 55.7979 -60.4015 227° Southwest  Level FlightAware Approximate
04:21PM 55.7117 -60.5636 227° Southwest  Level FlightAware Approximate
04:22PM 55.6252 -60.7251 227° Southwest  Level FlightAware Approximate
04:23PM 55.5386 -60.8858 226° Southwest  Level FlightAware Approximate
04:24PM 55.4517 -61.0458 226° Southwest  Level FlightAware Approximate
04:25PM 55.3646 -61.2051 226° Southwest  Level FlightAware Approximate
04:26PM 55.2773 -61.3637 226° Southwest  Level FlightAware Approximate
04:27PM 55.1898 -61.5216 226° Southwest  Level FlightAware Approximate
04:28PM 55.1021 -61.6788 226° Southwest  Level FlightAware Approximate
04:29PM 55.0142 -61.8354 226° Southwest  Level FlightAware Approximate
04:30PM 54.9261 -61.9912 225° Southwest  Level FlightAware Approximate
04:31PM 54.8378 -62.1464 225° Southwest  Level FlightAware Approximate
04:32PM 54.7331 -62.2665 225° Southwest  Level Estimated
04:33PM 54.6455 -62.4222 226° Southwest  Level FlightAware Approximate
04:34PM 54.5578 -62.5772 226° Southwest  Level FlightAware Approximate
04:35PM 54.4698 -62.7315 226° Southwest  Level FlightAware Approximate
04:36PM 54.3817 -62.8852 225° Southwest  Level FlightAware Approximate
04:37PM 54.2933 -63.0382 225° Southwest  Level FlightAware Approximate
04:38PM 54.2048 -63.1906 225° Southwest  Level FlightAware Approximate
04:39PM 54.1161 -63.3423 225° Southwest  Level FlightAware Approximate
04:40PM 54.0272 -63.4934 225° Southwest  Level FlightAware Approximate
04:41PM 53.9381 -63.6438 225° Southwest  Level FlightAware Approximate
04:42PM 53.8488 -63.7936 225° Southwest  Level FlightAware Approximate
04:43PM 53.7593 -63.9428 225° Southwest  Level FlightAware Approximate
04:44PM 53.6696 -64.0913 224° Southwest  Level FlightAware Approximate
04:45PM 53.5625 -64.2016 208° Southwest  Level Estimated
04:46PM 53.4526 -64.3038 209° Southwest  Level FlightAware Approximate
04:47PM 53.3427 -64.4055 209° Southwest  Level FlightAware Approximate
04:48PM 53.2326 -64.5066 209° Southwest  Level FlightAware Approximate
04:49PM 53.1225 -64.6072 209° Southwest  Level FlightAware Approximate
04:50PM 53.0123 -64.7073 209° Southwest  Level FlightAware Approximate
04:51PM 52.9020 -64.8069 209° Southwest  Level FlightAware Approximate
04:52PM 52.7916 -64.9060 209° Southwest  Level FlightAware Approximate
04:53PM 52.6812 -65.0045 208° Southwest  Level FlightAware Approximate
04:54PM 52.5706 -65.1026 208° Southwest  Level FlightAware Approximate
04:55PM 52.4600 -65.2002 208° Southwest  Level FlightAware Approximate
04:56PM 52.3493 -65.2973 208° Southwest  Level FlightAware Approximate
04:57PM 52.2385 -65.3939 208° Southwest  Level FlightAware Approximate
04:58PM 52.1277 -65.4900 208° Southwest  Level FlightAware Approximate
04:59PM 52.0167 -65.5857 208° Southwest  Level FlightAware Approximate
05:00PM 51.9057 -65.6809 208° Southwest  Level FlightAware Approximate
05:01PM 51.7973 -65.7834 192° South  Level Estimated
05:02PM 51.6727 -65.8086 187° South  Level FlightAware Approximate
05:03PM 51.5481 -65.8337 187° South  Level FlightAware Approximate
05:04PM 51.4398 -65.9355 192° South  Level Estimated
05:05PM 51.3161 -65.9698 190° South  Level FlightAware Approximate
05:06PM 51.1923 -66.0040 190° South  Level FlightAware Approximate
05:07PM 51.0684 -66.0379 190° South  Level FlightAware Approximate
05:08PM 50.9445 -66.0717 190° South  Level FlightAware Approximate
05:09PM 50.8206 -66.1054 190° South  Level FlightAware Approximate
05:10PM 50.6966 -66.1388 190° South  Level FlightAware Approximate
05:11PM 50.5727 -66.1721 190° South  Level FlightAware Approximate
05:12PM 50.4487 -66.2052 190° South  Level FlightAware Approximate
05:13PM 50.3248 -66.2381 190° South  Level FlightAware Approximate
05:14PM 50.2166 -66.3385 201° Southwest  Level Estimated
05:15PM 50.0922 -66.3664 188° South  Level FlightAware Approximate
05:16PM 49.9841 -66.4663 200° South  Level Estimated
05:17PM 49.8651 -66.5297 199° South  Level FlightAware Approximate
05:18PM 49.7462 -66.5927 199° South  Level FlightAware Approximate
05:19PM 49.6266 -66.6557 199° South  Level FlightAware Approximate
05:20PM 49.5071 -66.7184 199° South  Level FlightAware Approximate
05:21PM 49.3875 -66.7807 199° South  Level FlightAware Approximate
05:22PM 49.2679 -66.8428 199° South  Level FlightAware Approximate
05:23PM 49.1482 -66.9046 199° South  Level FlightAware Approximate
05:24PM 49.0286 -66.9660 199° South  Level FlightAware Approximate
05:25PM 48.9088 -67.0272 199° South  Level FlightAware Approximate
05:26PM 48.7891 -67.0881 199° South  Level FlightAware Approximate
05:27PM 48.6693 -67.1487 198° South  Level FlightAware Approximate
05:28PM 48.5495 -67.2090 198° South  Level FlightAware Approximate
05:29PM 48.4297 -67.2690 198° South  Level FlightAware Approximate
05:30PM 48.3098 -67.3287 198° South  Level FlightAware Approximate
05:31PM 48.1899 -67.3882 198° South  Level FlightAware Approximate
05:32PM 48.0700 -67.4474 198° South  Level FlightAware Approximate
05:33PM 47.9500 -67.5063 198° South  Level FlightAware Approximate
05:34PM 47.8300 -67.5649 198° South  Level FlightAware Approximate
05:35PM 47.7100 -67.6233 198° South  Level FlightAware Approximate
05:36PM 47.5899 -67.6814 198° South  Level FlightAware Approximate
05:37PM 47.4813 -67.7768 199° South  Level Estimated
05:38PM 47.3595 -67.8297 196° South  Level FlightAware Approximate
05:39PM 47.2376 -67.8823 196° South  Level FlightAware Approximate
05:40PM 47.1157 -67.9347 196° South  Level FlightAware Approximate
05:41PM 46.9936 -67.9869 196° South  Level FlightAware Approximate
05:42PM 46.8714 -68.0389 196° South  Level FlightAware Approximate
05:43PM 46.7621 -68.1339 196° South  Level Estimated
05:44PM 46.6393 -68.1820 195° South  Level FlightAware Approximate
05:45PM 46.5164 -68.2299 195° South  Level FlightAware Approximate
05:46PM 46.3936 -68.2776 195° South  Level FlightAware Approximate
05:47PM 46.2707 -68.3251 195° South  Level FlightAware Approximate
05:48PM 46.1478 -68.3724 195° South  Level FlightAware Approximate
05:49PM 46.0249 -68.4194 195° South  Level FlightAware Approximate
05:50PM 45.9019 -68.4663 195° South  Level FlightAware Approximate
05:51PM 45.7790 -68.5129 195° South  Level FlightAware Approximate
05:52PM 45.6560 -68.5593 195° South  Level FlightAware Approximate
05:53PM 45.5330 -68.6056 195° South  Level FlightAware Approximate
05:54PM 45.4100 -68.6516 195° South  Level FlightAware Approximate
05:55PM 45.2869 -68.6974 195° South  Level FlightAware Approximate
05:56PM 45.1639 -68.7431 195° South  Level FlightAware Approximate
05:57PM 45.0551 -68.8364 195° South  Level Estimated
05:58PM 44.9285 -68.8537 186° South  Level FlightAware Approximate
05:59PM 44.8197 -68.9467 205° Southwest  Level Estimated
06:00PM 44.7109 -69.0394 205° Southwest  Level Estimated
06:01PM 44.6020 -69.1317 206° Southwest  Level Estimated
06:02PM 44.4827 -69.1936 200° South  Level FlightAware Approximate
06:03PM 44.3633 -69.2551 200° South  Level FlightAware Approximate
06:04PM 44.2440 -69.3165 200° South  Level FlightAware Approximate
06:05PM 44.1246 -69.3776 200° South  Level FlightAware Approximate
06:06PM 44.0051 -69.4384 200° South  Level FlightAware Approximate
06:07PM 43.8962 -69.5296 204° Southwest  Level Estimated
06:08PM 43.7763 -69.5884 199° South  Level FlightAware Approximate
06:09PM 43.6673 -69.6791 207° Southwest  Level Estimated
06:10PM 43.5490 -69.7436 202° Southwest  Level FlightAware Approximate
06:11PM 43.4307 -69.8077 201° Southwest  Level FlightAware Approximate
06:12PM 43.3216 -69.8978 186° South  Level Estimated
06:13PM 43.1945 -69.8985 180° South  Level FlightAware Approximate
06:14PM 43.0673 -69.8992 180° South  Level FlightAware Approximate
06:15PM 42.9585 -69.9894 186° South  Level Estimated
06:16PM 42.8314 -69.9955 182° South  Level FlightAware Approximate
06:17PM 42.7043 -70.0014 182° South  Level FlightAware Approximate
06:18PM 42.5772 -70.0074 182° South  Level FlightAware Approximate
06:19PM 42.4501 -70.0133 182° South  Level FlightAware Approximate
06:20PM 42.3230 -70.0192 182° South  Level FlightAware Approximate
06:21PM 42.1959 -70.0251 182° South  Level FlightAware Approximate
06:22PM 42.0881 -70.1162 236° Southwest  Level Estimated
06:23PM 41.9749 -70.1936 207° Southwest  Level FlightAware Approximate
06:24PM 41.8672 -70.2841 232° Southwest  Level Estimated
06:25PM 41.7905 -70.4199 233° Southwest  Level FlightAware Approximate
06:26PM 41.7136 -70.5553 233° Southwest  Level FlightAware Approximate
06:27PM 41.6365 -70.6905 233° Southwest  Level FlightAware Approximate
06:28PM 41.5593 -70.8253 233° Southwest  Level FlightAware Approximate
06:29PM 41.4819 -70.9598 233° Southwest  Level FlightAware Approximate
06:30PM 41.4044 -71.0940 232° Southwest  Level FlightAware Approximate
06:31PM 41.3267 -71.2279 232° Southwest  Level FlightAware Approximate
06:32PM 41.2489 -71.3614 232° Southwest  Level FlightAware Approximate
06:33PM 41.1709 -71.4947 232° Southwest  Level FlightAware Approximate
06:34PM 41.0927 -71.6276 232° Southwest  Level FlightAware Approximate
06:35PM 40.9827 -71.7112 231° Southwest  Level Estimated
06:36PM 40.9062 -71.8451 233° Southwest  Level FlightAware Approximate
06:37PM 40.8296 -71.9787 233° Southwest  Level FlightAware Approximate
06:38PM 40.7527 -72.1120 233° Southwest  Level FlightAware Approximate
06:39PM 40.6758 -72.2449 233° Southwest  Level FlightAware Approximate
06:40PM 40.5987 -72.3776 233° Southwest  Level FlightAware Approximate
06:41PM 40.5214 -72.5100 233° Southwest  Level FlightAware Approximate
06:42PM 40.4440 -72.6421 232° Southwest  Level FlightAware Approximate
06:43PM 40.3664 -72.7738 232° Southwest  Level FlightAware Approximate
06:44PM 40.2888 -72.9051 232° Southwest  Level FlightAware Approximate
06:45PM 40.2111 -73.0360 232° Southwest  Level FlightAware Approximate
06:46PM 40.1332 -73.1667 232° Southwest  Level FlightAware Approximate
06:47PM 40.0206 -73.2424 221° Southwest  Level Estimated
06:48PM 39.9393 -73.3691 230° Southwest  Level FlightAware Approximate
06:49PM 39.8264 -73.4439 221° Southwest  Level Estimated
06:50PM 39.7386 -73.5627 226° Southwest  Level FlightAware Approximate
06:51PM 39.6507 -73.6812 226° Southwest  Level FlightAware Approximate
06:52PM 39.5626 -73.7995 226° Southwest  Level FlightAware Approximate
06:53PM 39.4743 -73.9176 226° Southwest  Level FlightAware Approximate
06:54PM 39.3604 -73.9898 220° Southwest  Level Estimated
06:55PM 39.2690 -74.1033 224° Southwest  Level FlightAware Approximate
06:56PM 39.1775 -74.2166 224° Southwest  Level FlightAware Approximate
06:57PM 39.0858 -74.3296 224° Southwest  Level FlightAware Approximate
06:58PM 38.9940 -74.4423 224° Southwest  Level FlightAware Approximate
06:59PM 38.8794 -74.5119 220° Southwest  Level Estimated
07:00PM 38.7995 -74.6384 231° Southwest  Level FlightAware Approximate
07:01PM 38.6846 -74.7070 220° Southwest  Level Estimated
07:02PM 38.5914 -74.8172 223° Southwest  Level FlightAware Approximate
07:03PM 38.4982 -74.9271 223° Southwest  Level FlightAware Approximate
07:04PM 38.4049 -75.0368 223° Southwest  Level FlightAware Approximate
07:05PM 38.3114 -75.1461 223° Southwest  Level FlightAware Approximate
07:06PM 38.2179 -75.2552 223° Southwest  Level FlightAware Approximate
07:07PM 38.1243 -75.3640 222° Southwest  Level FlightAware Approximate
07:08PM 38.0082 -75.4288 211° Southwest  Level Estimated
07:09PM 37.9115 -75.5328 220° Southwest  Level FlightAware Approximate
07:10PM 37.7952 -75.5968 212° Southwest  Level Estimated
07:11PM 37.6945 -75.6944 218° Southwest  Level FlightAware Approximate
07:12PM 37.5938 -75.7917 217° Southwest  Level FlightAware Approximate
07:13PM 37.4771 -75.8545 203° Southwest  Level Estimated
07:14PM 37.3623 -75.9223 205° Southwest  Level FlightAware Approximate
07:15PM 37.2475 -75.9899 205° Southwest  Level FlightAware Approximate
07:16PM 37.1307 -76.0520 205° Southwest  Level Estimated
07:17PM 37.0163 -76.1206 206° Southwest  Level FlightAware Approximate
07:18PM 36.8994 -76.1822 216° Southwest  Level Estimated
07:19PM 36.7971 -76.2757 216° Southwest  Level FlightAware Approximate
07:20PM 36.6946 -76.3689 216° Southwest  Level FlightAware Approximate
07:21PM 36.5920 -76.4619 216° Southwest  Level FlightAware Approximate
07:22PM 36.4894 -76.5547 216° Southwest  Level FlightAware Approximate
07:23PM 36.3867 -76.6472 216° Southwest  Level FlightAware Approximate
07:24PM 36.2840 -76.7394 216° Southwest  Level FlightAware Approximate
07:25PM 36.1811 -76.8314 216° Southwest  Level FlightAware Approximate
07:26PM 36.0782 -76.9232 216° Southwest  Level FlightAware Approximate
07:27PM 35.9602 -76.9805 219° Southwest  Level Estimated
07:28PM 35.8421 -77.0376 202° Southwest  Level Estimated
07:29PM 35.7269 -77.1029 205° Southwest  Level FlightAware Approximate
07:30PM 35.6116 -77.1679 205° Southwest  Level FlightAware Approximate
07:31PM 35.4963 -77.2328 205° Southwest  Level FlightAware Approximate
07:32PM 35.3809 -77.2975 205° Southwest  Level FlightAware Approximate
07:33PM 35.2655 -77.3620 205° Southwest  Level FlightAware Approximate
07:34PM 35.1496 -77.4266 204° Southwest  Level FlightAware Approximate
07:35PM 35.0337 -77.4910 204° Southwest  Level FlightAware Approximate
07:36PM 34.9177 -77.5552 204° Southwest  Level FlightAware Approximate
07:37PM 34.8023 -77.6189 204° Southwest  Level FlightAware Approximate
07:38PM 34.6870 -77.6824 204° Southwest  Level FlightAware Approximate
07:39PM 34.5715 -77.7457 204° Southwest  Level FlightAware Approximate
07:40PM 34.4561 -77.8088 204° Southwest  Level FlightAware Approximate
07:41PM 34.3375 -77.8626 194° South  Level Estimated
07:42PM 34.2149 -77.9012 195° South  Level FlightAware Approximate
07:43PM 34.0924 -77.9398 195° South  Level FlightAware Approximate
07:44PM 33.9698 -77.9782 195° South  Level FlightAware Approximate
07:45PM 33.8513 -78.0319 193° South  Level Estimated
07:46PM 33.7278 -78.0659 193° South  Level FlightAware Approximate
07:47PM 33.6044 -78.0998 193° South  Level FlightAware Approximate
07:48PM 33.4809 -78.1336 193° South  Level FlightAware Approximate
07:49PM 33.3575 -78.1674 193° South  Level FlightAware Approximate
07:50PM 33.2340 -78.2010 193° South  Level FlightAware Approximate
07:51PM 33.1105 -78.2345 193° South  Level FlightAware Approximate
07:52PM 32.9870 -78.2679 193° South  Level FlightAware Approximate
07:53PM 32.8635 -78.3013 193° South  Level FlightAware Approximate
07:54PM 32.7400 -78.3345 193° South  Level FlightAware Approximate
07:55PM 32.6165 -78.3677 193° South  Level FlightAware Approximate
07:56PM 32.4985 -78.4223 192° South  Level Estimated
07:57PM 32.3805 -78.4769 194° South  Level Estimated
07:58PM 32.2560 -78.5039 190° South  Level FlightAware Approximate
07:59PM 32.1314 -78.5309 190° South  Level FlightAware Approximate
08:00PM 32.0069 -78.5578 190° South  Level FlightAware Approximate
08:01PM 31.8823 -78.5847 190° South  Level FlightAware Approximate
08:02PM 31.7644 -78.6401 194° South  Level Estimated
08:03PM 31.6403 -78.6721 192° South  Level FlightAware Approximate
08:04PM 31.5163 -78.7041 192° South  Level FlightAware Approximate
08:05PM 31.3922 -78.7359 192° South  Level FlightAware Approximate
08:06PM 31.2681 -78.7677 192° South  Level FlightAware Approximate
08:07PM 31.1441 -78.7993 192° South  Level FlightAware Approximate
08:08PM 31.0200 -78.8309 192° South  Level FlightAware Approximate
08:09PM 30.8959 -78.8624 192° South  Level FlightAware Approximate
08:10PM 30.7718 -78.8939 192° South  Level FlightAware Approximate
08:11PM 30.6477 -78.9252 192° South  Level FlightAware Approximate
08:12PM 30.5236 -78.9565 192° South  Level FlightAware Approximate
08:13PM 30.4067 -79.0141 200° South  Level Estimated
08:14PM 30.2840 -79.0522 195° South  Level FlightAware Approximate
08:15PM 30.1672 -79.1099 201° Southwest  Level Estimated
08:16PM 30.0480 -79.1606 200° South  Level FlightAware Approximate
08:17PM 29.9289 -79.2113 200° South  Level FlightAware Approximate
08:18PM 29.8097 -79.2617 200° South  Level FlightAware Approximate
08:19PM 29.6904 -79.3121 200° South  Level FlightAware Approximate
08:20PM 29.5712 -79.3624 200° South  Level FlightAware Approximate
08:21PM 29.4519 -79.4125 200° South  Level FlightAware Approximate
08:22PM 29.3326 -79.4625 200° South  Level FlightAware Approximate
08:23PM 29.2133 -79.5124 200° South  Level FlightAware Approximate
08:24PM 29.0967 -79.5700 188° South  Level Estimated
08:25PM 28.9706 -79.5877 187° South  Level FlightAware Approximate
08:26PM 28.8543 -79.6458 189° South  Level Estimated
08:27PM 28.7285 -79.6657 188° South  Level FlightAware Approximate
08:28PM 28.6026 -79.6855 188° South  Level FlightAware Approximate
08:29PM 28.4768 -79.7052 188° South  Level FlightAware Approximate
08:30PM 28.3512 -79.7249 188° South  Level FlightAware Approximate
08:31PM 28.2256 -79.7445 188° South  Level FlightAware Approximate
08:32PM 28.0999 -79.7641 188° South  Level FlightAware Approximate
08:33PM 27.9743 -79.7837 188° South  Level FlightAware Approximate
08:34PM 27.8487 -79.8032 188° South  Level FlightAware Approximate
08:35PM 27.7230 -79.8226 188° South  Level FlightAware Approximate
08:36PM 27.5974 -79.8420 188° South  Level FlightAware Approximate
08:37PM 27.4717 -79.8614 188° South  Level FlightAware Approximate
08:38PM 27.3461 -79.8807 188° South  Level FlightAware Approximate
08:39PM 27.2204 -79.9000 188° South  Level FlightAware Approximate
08:40PM 27.0948 -79.9192 188° South  Level FlightAware Approximate
08:41PM 26.9689 -79.9384 188° South  Level FlightAware Approximate
08:42PM 26.8588 -80.0094 189° South  Level Estimated
08:43PM 26.7322 -80.0210 185° South  Level FlightAware Approximate
08:44PM 26.6057 -80.0326 185° South  Level FlightAware Approximate
08:45PM 26.4791 -80.0442 185° South  Level FlightAware Approximate
08:46PM 26.3525 -80.0558 185° South  Level FlightAware Approximate
08:47PM 26.2459 -80.1328 189° South  Level Estimated
08:48PM 26.1190 -80.1372 182° South  Level FlightAware Approximate
08:49PM 25.9921 -80.1416 182° South  Level FlightAware Approximate
08:50PM 25.8651 -80.1460 182° South  Level FlightAware Approximate
08:51PM 25.7625 -80.2291 219° Southwest  Level Estimated
08:52PM 25.6598 -80.3120 219° Southwest  Level Estimated
08:53PM 25.5538 -80.3896 213° Southwest  Level FlightAware Approximate
08:54PM 25.4477 -80.4670 213° Southwest  Level FlightAware Approximate
08:55PM 25.3416 -80.5442 213° Southwest  Level FlightAware Approximate
08:56PM 25.2355 -80.6214 213° Southwest  Level FlightAware Approximate
08:57PM 25.1332 -80.7045 218° Southwest  Level Estimated
08:58PM 25.0321 -80.7894 217° Southwest  Level FlightAware Approximate
08:59PM 24.9296 -80.8722 220° Southwest  Level Estimated
09:00PM 24.8322 -80.9620 220° Southwest  Level FlightAware Approximate
09:01PM 24.7293 -81.0441 187° South  Level Estimated
09:02PM 24.6058 -81.0762 193° South  Level FlightAware Approximate
09:03PM 24.5047 -81.1608 186° South  Level Estimated
09:04PM 24.4036 -81.2452 189° South  Level Estimated
09:05PM 24.2788 -81.2197 169° South  Level FlightAware Approximate
09:06PM 24.1821 -81.3100 193° South  Level Estimated
09:07PM 24.0853 -81.4002 196° South  Level Estimated
09:08PM 23.9634 -81.3615 164° South  Level FlightAware Approximate
09:09PM 23.8732 -81.4594 191° South  Level Estimated
09:10PM 23.7490 -81.4306 168° South  Level FlightAware Approximate
09:11PM 23.6248 -81.4018 168° South  Level FlightAware Approximate
09:12PM 23.5532 -81.5163 194° South  Level Estimated
09:13PM 23.4270 -81.5006 174° South  Level FlightAware Approximate
09:14PM 23.3008 -81.4850 174° South  Level FlightAware Approximate
09:15PM 23.2574 -81.6150 264° West  Level Estimated
09:16PM 23.1372 -81.6596 199° South  Level FlightAware Approximate
09:17PM 23.1108 -81.7947 257° West  Level Estimated
09:18PM 23.0843 -81.9297 270° West  Level Estimated
09:19PM 23.0577 -82.0647 270° West  Level Estimated
09:20PM 23.0309 -82.1996 285° West  Level Estimated
09:21PM 22.9667 -82.3048 270° West  Level FlightAware Approximate
09:22PM 22.9667 -82.4000 270° West  Level FlightAware Approximate
09:23PM 22.9891 -82.4091 270° West  Level Estimated
09:24PM 22.9891 -82.4091 270° West  Level Estimated
09:25PM 22.9891 -82.4091 270° West  Level Estimated